Time;durP1;ratioP1;P1;durP2;ratioP2;P2;SDS_P1;SDS_P2;PMS_P1;PMS_P2;Temp;Humidity;BMP_temperature;BMP_pressure;BME280_temperature;BME280_humidity;BME280_pressure;Samples;Min_cycle;Max_cycle;Signal;HPM_P1;HPM_P2
2021/12/29 00:01:59;;;;;;;85.40;25.13;;;5.50;99.90;;;;;;4944246;28;20027;-86
2021/12/29 00:04:27;;;;;;;84.00;24.83;;;5.50;99.90;;;;;;4963258;28;20351;-86
2021/12/29 00:06:54;;;;;;;88.82;25.38;;;5.50;99.90;;;;;;4947226;28;20038;-86
2021/12/29 00:09:20;;;;;;;84.03;24.70;;;5.50;99.90;;;;;;4961287;28;20416;-86
2021/12/29 00:11:46;;;;;;;91.60;25.58;;;5.50;99.90;;;;;;4952794;28;20031;-85
2021/12/29 00:14:11;;;;;;;82.45;24.40;;;5.50;99.90;;;;;;4941403;29;20343;-86
2021/12/29 00:16:37;;;;;;;81.65;23.48;;;5.60;99.90;;;;;;4955087;28;20078;-85
2021/12/29 00:19:06;;;;;;;79.68;22.92;;;5.50;99.90;;;;;;4962819;28;20047;-86
2021/12/29 00:21:33;;;;;;;88.85;24.23;;;5.40;99.90;;;;;;4944415;29;20055;-87
2021/12/29 00:24:05;;;;;;;87.15;24.05;;;5.50;99.90;;;;;;4959616;28;20395;-85
2021/12/29 00:26:33;;;;;;;88.72;22.83;;;5.50;99.90;;;;;;4943987;29;20030;-85
2021/12/29 00:29:00;;;;;;;86.55;22.73;;;5.50;99.90;;;;;;4946224;28;20071;-85
2021/12/29 00:31:28;;;;;;;77.90;23.40;;;5.40;99.90;;;;;;4963335;28;20110;-85
2021/12/29 00:33:53;;;;;;;77.28;23.25;;;5.40;99.90;;;;;;4963918;28;20166;-85
2021/12/29 00:36:19;;;;;;;90.00;23.10;;;5.40;99.90;;;;;;4963816;28;20110;-85
2021/12/29 00:38:45;;;;;;;81.10;22.08;;;5.40;99.90;;;;;;4946717;28;20114;-85
2021/12/29 00:41:11;;;;;;;86.72;22.00;;;5.40;99.90;;;;;;4946212;28;20155;-85
2021/12/29 00:43:37;;;;;;;73.47;21.98;;;5.40;99.90;;;;;;4960886;28;20016;-85
2021/12/29 00:46:04;;;;;;;68.63;21.42;;;5.40;99.90;;;;;;4949381;28;20054;-85
2021/12/29 00:48:36;;;;;;;60.97;21.25;;;5.40;99.90;;;;;;4967379;28;20055;-85
2021/12/29 00:51:03;;;;;;;65.80;21.90;;;5.40;99.90;;;;;;4965309;28;20035;-85
2021/12/29 00:53:29;;;;;;;73.50;23.02;;;5.40;99.90;;;;;;4965114;28;20035;-85
2021/12/29 00:55:55;;;;;;;70.93;21.58;;;5.40;99.90;;;;;;4966542;28;20461;-85
2021/12/29 00:58:20;;;;;;;71.28;23.05;;;5.50;99.90;;;;;;4946518;29;20031;-85
2021/12/29 01:00:46;;;;;;;76.40;21.23;;;5.40;99.90;;;;;;4952596;29;20178;-85
2021/12/29 01:03:12;;;;;;;76.57;21.50;;;5.40;99.90;;;;;;4950480;28;20032;-85
2021/12/29 01:05:38;;;;;;;97.00;21.90;;;5.40;99.90;;;;;;4945421;29;20517;-85
2021/12/29 01:08:05;;;;;;;76.63;22.70;;;5.40;99.90;;;;;;4967499;28;20038;-85
2021/12/29 01:10:31;;;;;;;68.72;21.02;;;5.40;99.90;;;;;;4966559;28;20050;-85
2021/12/29 01:12:57;;;;;;;68.25;22.15;;;5.30;99.90;;;;;;4965586;28;20141;-85
2021/12/29 01:15:30;;;;;;;79.00;20.50;;;5.30;99.90;;;;;;4950803;28;20035;-85
2021/12/29 01:18:01;;;;;;;66.60;21.52;;;5.30;99.90;;;;;;4951237;29;20158;-84
2021/12/29 01:20:28;;;;;;;68.78;20.42;;;5.20;99.90;;;;;;4965484;28;20027;-85
2021/12/29 01:22:54;;;;;;;69.43;20.67;;;5.30;99.90;;;;;;4964479;28;20034;-85
2021/12/29 01:25:21;;;;;;;68.85;21.17;;;5.30;99.90;;;;;;4950480;28;20035;-85
2021/12/29 01:27:48;;;;;;;77.53;20.23;;;5.30;99.90;;;;;;4965176;28;20126;-85
2021/12/29 01:30:16;;;;;;;78.10;21.85;;;5.30;99.90;;;;;;4962430;28;20078;-85
2021/12/29 01:32:42;;;;;;;118.28;22.58;;;5.30;99.90;;;;;;4947093;29;20436;-85
2021/12/29 01:35:10;;;;;;;82.15;20.15;;;5.20;99.90;;;;;;4964919;28;20034;-85
2021/12/29 01:37:35;;;;;;;82.38;19.98;;;5.10;99.90;;;;;;4951892;28;20174;-85
2021/12/29 01:40:06;;;;;;;76.13;19.17;;;5.10;99.90;;;;;;4964848;28;20031;-85
2021/12/29 01:42:32;;;;;;;72.07;20.40;;;5.00;99.90;;;;;;4964943;28;20454;-85
2021/12/29 01:44:57;;;;;;;72.75;19.67;;;5.00;99.90;;;;;;4966256;28;20148;-85
2021/12/29 01:47:25;;;;;;;78.80;19.98;;;5.00;99.90;;;;;;4938512;29;20067;-85
2021/12/29 01:49:51;;;;;;;73.07;20.45;;;4.90;99.90;;;;;;4964722;28;20035;-85
2021/12/29 01:52:21;;;;;;;108.22;20.27;;;4.90;99.90;;;;;;4963120;28;20027;-85
2021/12/29 01:54:47;;;;;;;342.92;23.85;;;4.90;99.90;;;;;;4963629;28;20059;-85
2021/12/29 01:57:13;;;;;;;79.90;19.48;;;4.90;99.90;;;;;;4944492;28;20076;-85
2021/12/29 01:59:38;;;;;;;122.25;18.88;;;4.80;99.90;;;;;;4950236;28;20082;-85
2021/12/29 02:02:05;;;;;;;438.83;28.70;;;4.80;99.90;;;;;;4963187;28;20114;-85
2021/12/29 02:04:30;;;;;;;214.75;22.55;;;4.90;99.90;;;;;;4964083;28;20034;-85
2021/12/29 02:06:56;;;;;;;144.18;20.13;;;4.80;99.90;;;;;;4948840;28;20102;-85
2021/12/29 02:09:21;;;;;;;390.40;27.20;;;4.80;99.90;;;;;;4965709;28;20035;-85
2021/12/29 02:11:47;;;;;;;62.95;18.98;;;4.80;99.90;;;;;;4963902;28;20051;-85
2021/12/29 02:14:13;;;;;;;80.13;19.88;;;4.80;99.90;;;;;;4944811;28;20040;-85
2021/12/29 02:16:39;;;;;;;96.05;21.40;;;5.00;99.90;;;;;;4961890;28;20023;-85
2021/12/29 02:19:08;;;;;;;75.43;21.25;;;5.00;99.90;;;;;;4949693;28;20059;-85
2021/12/29 02:21:34;;;;;;;105.50;23.80;;;5.00;99.90;;;;;;4940531;28;20019;-85
2021/12/29 02:26:32;;;;;;;105.30;24.60;;;5.00;99.90;;;;;;4948504;28;20099;-85
2021/12/29 02:29:01;;;;;;;123.53;24.75;;;5.10;99.90;;;;;;4962158;28;20809;-85
2021/12/29 02:31:27;;;;;;;131.65;26.13;;;5.00;99.90;;;;;;4961793;28;20055;-85
2021/12/29 02:33:53;;;;;;;185.63;26.23;;;5.00;99.90;;;;;;4948401;28;20483;-85
2021/12/29 02:36:20;;;;;;;161.32;28.08;;;4.90;99.90;;;;;;4964175;28;20038;-85
2021/12/29 02:38:52;;;;;;;135.73;27.80;;;4.90;99.90;;;;;;4943049;29;20075;-85
2021/12/29 02:41:19;;;;;;;222.40;27.90;;;4.90;99.90;;;;;;4960296;28;20031;-85
2021/12/29 02:43:45;;;;;;;227.75;29.02;;;4.80;99.90;;;;;;4964198;28;20070;-85
2021/12/29 02:46:14;;;;;;;184.70;27.75;;;4.80;99.90;;;;;;4947294;29;20035;-85
2021/12/29 02:48:48;;;;;;;138.60;29.50;;;4.80;99.90;;;;;;4961838;28;20064;-85
2021/12/29 02:51:14;;;;;;;124.53;28.77;;;4.80;99.90;;;;;;4946542;28;20090;-85
2021/12/29 02:53:40;;;;;;;153.65;29.98;;;4.90;99.90;;;;;;4945984;28;20031;-85
2021/12/29 02:56:05;;;;;;;153.27;30.20;;;4.80;99.90;;;;;;4942512;28;20027;-85
2021/12/29 02:58:32;;;;;;;161.52;29.88;;;4.80;99.90;;;;;;4949313;28;20031;-85
2021/12/29 03:00:59;;;;;;;180.18;32.33;;;4.80;99.90;;;;;;4965045;28;20031;-85
2021/12/29 03:03:28;;;;;;;154.35;30.92;;;4.80;99.90;;;;;;4964487;28;20070;-85
2021/12/29 03:05:54;;;;;;;191.02;32.50;;;4.80;99.90;;;;;;4961583;28;20035;-85
2021/12/29 03:08:21;;;;;;;215.20;32.28;;;4.70;99.90;;;;;;4964414;28;20019;-85
2021/12/29 03:10:52;;;;;;;329.38;34.63;;;4.70;99.90;;;;;;4963982;28;20082;-85
2021/12/29 03:13:18;;;;;;;;;;;4.70;99.90;;;;;;4945747;28;20031;-85
2021/12/29 03:15:43;;;;;;;321.27;32.60;;;4.70;99.90;;;;;;4939706;29;19961;-85
2021/12/29 03:18:09;;;;;;;217.57;32.88;;;4.70;99.90;;;;;;4948237;29;20055;-85
2021/12/29 03:20:35;;;;;;;255.02;32.85;;;4.70;99.90;;;;;;4960184;28;20501;-85
2021/12/29 03:23:00;;;;;;;190.57;32.47;;;4.70;99.90;;;;;;4965089;28;20401;-85
2021/12/29 03:25:26;;;;;;;256.25;34.17;;;4.70;99.90;;;;;;4964049;28;20064;-85
2021/12/29 03:27:58;;;;;;;266.10;33.60;;;4.70;99.90;;;;;;4959447;28;20046;-85
2021/12/29 03:30:27;;;;;;;395.77;38.05;;;4.60;99.90;;;;;;4961451;28;20024;-85
2021/12/29 03:33:02;;;;;;;439.10;39.03;;;4.60;99.90;;;;;;4964251;28;20043;-86
2021/12/29 03:35:33;;;;;;;351.05;34.40;;;4.60;99.90;;;;;;4944174;28;20387;-85
2021/12/29 03:38:00;;;;;;;404.50;36.70;;;4.60;99.90;;;;;;4963170;28;20028;-85
2021/12/29 03:40:27;;;;;;;469.25;39.67;;;4.60;99.90;;;;;;4947972;29;20054;-85
2021/12/29 03:42:53;;;;;;;394.25;37.28;;;4.60;99.90;;;;;;4944287;29;20190;-85
2021/12/29 03:45:19;;;;;;;373.05;37.22;;;4.60;99.90;;;;;;4963040;28;20034;-85
2021/12/29 03:47:45;;;;;;;341.15;33.83;;;4.60;99.90;;;;;;4960507;28;20037;-85
2021/12/29 03:50:11;;;;;;;402.58;35.97;;;4.60;99.90;;;;;;4960795;28;20486;-86
2021/12/29 03:52:36;;;;;;;443.10;39.90;;;4.60;99.90;;;;;;4959416;28;20037;-85
2021/12/29 03:55:02;;;;;;;249.80;31.92;;;4.60;99.90;;;;;;4958653;28;20035;-85
2021/12/29 03:57:28;;;;;;;320.67;34.97;;;4.60;99.90;;;;;;4961528;28;20023;-85
2021/12/29 03:59:53;;;;;;;349.17;35.55;;;4.50;99.90;;;;;;4958249;28;20157;-86
2021/12/29 04:02:19;;;;;;;319.55;36.10;;;4.60;99.90;;;;;;4962521;28;20023;-87
2021/12/29 04:04:45;;;;;;;374.92;37.15;;;4.60;99.90;;;;;;4960078;28;20489;-86
2021/12/29 04:07:10;;;;;;;344.83;35.40;;;4.60;99.90;;;;;;4946514;29;20386;-86
2021/12/29 04:09:38;;;;;;;444.40;40.95;;;4.60;99.90;;;;;;4948326;28;20122;-85
2021/12/29 04:12:03;;;;;;;460.45;39.50;;;4.60;99.90;;;;;;4960030;28;20534;-85
2021/12/29 04:14:29;;;;;;;182.82;32.58;;;4.50;99.90;;;;;;4944416;28;20110;-86
2021/12/29 04:16:57;;;;;;;256.00;34.58;;;4.50;99.90;;;;;;4946169;28;20027;-86
2021/12/29 04:19:40;;;;;;;158.98;32.03;;;4.60;99.90;;;;;;4949034;28;20240;-86
2021/12/29 04:22:10;;;;;;;228.45;34.05;;;4.60;99.90;;;;;;4965206;28;20024;-86
2021/12/29 04:24:36;;;;;;;271.35;37.35;;;4.60;99.90;;;;;;4950986;28;20043;-86
2021/12/29 04:27:05;;;;;;;236.02;33.50;;;4.50;99.90;;;;;;4963848;28;20463;-85
2021/12/29 04:29:31;;;;;;;276.20;36.15;;;4.60;99.90;;;;;;4952123;28;20023;-85
2021/12/29 04:31:57;;;;;;;317.42;38.80;;;4.50;99.90;;;;;;4966014;28;20101;-86
2021/12/29 04:34:22;;;;;;;181.40;33.88;;;4.50;99.90;;;;;;4952458;28;20062;-86
2021/12/29 04:36:48;;;;;;;257.80;36.53;;;4.50;99.90;;;;;;4944969;28;20031;-86
2021/12/29 04:39:13;;;;;;;261.95;36.40;;;4.50;99.90;;;;;;4965766;28;20078;-86
2021/12/29 04:41:39;;;;;;;349.75;39.30;;;4.40;99.90;;;;;;4966456;28;20019;-86
2021/12/29 04:44:05;;;;;;;259.00;37.03;;;4.40;99.90;;;;;;4949634;28;20035;-86
2021/12/29 04:46:38;;;;;;;256.17;35.72;;;4.40;99.90;;;;;;4963289;28;20085;-86
2021/12/29 04:49:10;;;;;;;298.58;39.60;;;4.40;99.90;;;;;;4946702;29;20034;-86
2021/12/29 04:51:43;;;;;;;317.38;38.80;;;4.40;99.90;;;;;;4950129;29;20026;-86
2021/12/29 04:54:09;;;;;;;310.67;38.13;;;4.40;99.90;;;;;;4965962;28;20114;-86
2021/12/29 04:56:35;;;;;;;344.58;39.50;;;4.40;99.90;;;;;;4948954;28;20106;-86
2021/12/29 04:59:00;;;;;;;476.92;44.72;;;4.40;99.90;;;;;;4961957;28;20159;-85
2021/12/29 05:01:26;;;;;;;264.30;37.03;;;4.30;99.90;;;;;;4946020;28;20150;-86
2021/12/29 05:03:53;;;;;;;492.55;44.35;;;4.30;99.90;;;;;;4965868;28;20107;-86
2021/12/29 05:08:50;;;;;;;571.95;48.05;;;4.30;99.90;;;;;;4951510;28;20023;-86
2021/12/29 05:11:15;;;;;;;303.27;36.17;;;4.30;99.90;;;;;;4965414;28;20340;-86
2021/12/29 05:13:43;;;;;;;569.92;46.90;;;4.30;99.90;;;;;;4963994;28;20030;-86
2021/12/29 05:16:09;;;;;;;541.47;43.90;;;4.30;99.90;;;;;;4947201;28;20039;-86
2021/12/29 05:18:36;;;;;;;473.13;42.17;;;4.30;99.90;;;;;;4948888;29;20159;-86
2021/12/29 05:21:04;;;;;;;470.33;41.33;;;4.30;99.90;;;;;;4963808;28;20046;-86
2021/12/29 05:23:30;;;;;;;629.78;48.53;;;4.20;99.90;;;;;;4965021;28;20042;-86
2021/12/29 05:25:55;;;;;;;569.33;44.67;;;4.20;99.90;;;;;;4948561;28;20075;-86
2021/12/29 05:28:23;;;;;;;635.35;49.25;;;4.20;99.90;;;;;;4961851;28;20058;-86
2021/12/29 05:30:50;;;;;;;444.92;42.42;;;4.20;99.90;;;;;;4965498;28;20079;-85
2021/12/29 05:33:16;;;;;;;497.23;44.45;;;4.20;99.90;;;;;;4948663;28;20394;-85
2021/12/29 05:35:42;;;;;;;552.20;47.47;;;4.30;99.90;;;;;;4961325;28;20031;-85
2021/12/29 05:38:08;;;;;;;427.98;41.53;;;4.20;99.90;;;;;;4965395;28;20037;-85
2021/12/29 05:40:33;;;;;;;515.38;47.20;;;4.30;99.90;;;;;;4964908;28;20339;-85
2021/12/29 05:42:59;;;;;;;515.08;46.60;;;4.30;99.90;;;;;;4944171;29;20517;-85
2021/12/29 05:45:26;;;;;;;512.42;46.60;;;4.30;99.90;;;;;;4963898;28;20110;-85
2021/12/29 05:47:52;;;;;;;438.88;44.00;;;4.30;99.90;;;;;;4963518;28;20050;-85
2021/12/29 05:50:21;;;;;;;405.60;42.75;;;4.30;99.90;;;;;;4962010;28;20031;-85
2021/12/29 05:52:48;;;;;;;453.30;45.45;;;4.30;99.90;;;;;;4946457;28;20027;-85
2021/12/29 05:55:14;;;;;;;484.40;45.00;;;4.30;99.90;;;;;;4963316;28;20472;-85
2021/12/29 05:57:40;;;;;;;511.13;45.58;;;4.30;99.90;;;;;;4962052;28;20425;-85
2021/12/29 06:00:12;;;;;;;429.08;43.17;;;4.30;99.90;;;;;;4961745;28;20447;-85
2021/12/29 06:02:38;;;;;;;555.80;48.95;;;4.30;99.90;;;;;;4949328;28;20030;-85
2021/12/29 06:05:06;;;;;;;355.60;39.47;;;4.30;99.90;;;;;;4961043;28;20491;-85
2021/12/29 06:07:33;;;;;;;711.53;54.50;;;4.30;99.90;;;;;;4944878;29;20089;-85
2021/12/29 06:09:58;;;;;;;567.08;50.63;;;4.30;99.90;;;;;;4960610;28;20127;-85
2021/12/29 06:12:24;;;;;;;683.42;54.08;;;4.30;99.90;;;;;;4944917;29;20134;-85
2021/12/29 06:14:50;;;;;;;449.80;43.03;;;4.20;99.90;;;;;;4946619;28;20020;-85
2021/12/29 06:17:16;;;;;;;432.83;43.58;;;4.20;99.90;;;;;;4959991;28;20027;-85
2021/12/29 06:19:42;;;;;;;524.75;47.22;;;4.30;99.90;;;;;;4948948;28;20398;-85
2021/12/29 06:22:11;;;;;;;446.50;43.40;;;4.30;99.90;;;;;;4960246;28;20020;-85
2021/12/29 06:24:38;;;;;;;431.20;43.17;;;4.30;99.90;;;;;;4961216;28;20114;-85
2021/12/29 06:27:04;;;;;;;546.10;46.75;;;4.30;99.90;;;;;;4946333;29;20027;-85
2021/12/29 06:29:30;;;;;;;549.50;48.50;;;4.30;99.90;;;;;;4963820;28;20110;-85
2021/12/29 06:31:55;;;;;;;438.40;44.28;;;4.20;99.90;;;;;;4960254;28;20107;-85
2021/12/29 06:34:21;;;;;;;538.42;46.40;;;4.30;99.90;;;;;;4946446;28;20125;-85
2021/12/29 06:36:47;;;;;;;562.15;47.38;;;4.30;99.90;;;;;;4960005;28;20102;-85
2021/12/29 06:39:12;;;;;;;571.17;47.75;;;4.20;99.90;;;;;;4948593;28;20031;-85
2021/12/29 06:41:37;;;;;;;535.17;47.53;;;4.20;99.90;;;;;;4963961;28;20163;-85
2021/12/29 06:44:03;;;;;;;453.75;40.80;;;4.20;99.90;;;;;;4947119;28;20054;-85
2021/12/29 06:46:29;;;;;;;475.35;42.85;;;4.30;99.90;;;;;;4962425;28;21292;-85
2021/12/29 06:48:54;;;;;;;412.20;41.17;;;4.20;99.90;;;;;;4958991;28;20072;-85
2021/12/29 06:51:20;;;;;;;302.55;38.95;;;4.20;99.90;;;;;;4947535;29;20039;-85
2021/12/29 06:53:46;;;;;;;240.55;37.13;;;4.20;99.90;;;;;;4944982;29;20034;-85
2021/12/29 06:56:11;;;;;;;359.52;41.08;;;4.30;99.90;;;;;;4962849;28;20027;-86
2021/12/29 06:58:37;;;;;;;268.77;37.10;;;4.40;99.90;;;;;;4960500;28;20024;-84
2021/12/29 07:01:03;;;;;;;220.43;32.33;;;4.40;99.90;;;;;;4961643;28;20340;-85
2021/12/29 07:03:29;;;;;;;277.20;39.03;;;4.40;99.90;;;;;;4946218;28;20047;-85
2021/12/29 07:05:54;;;;;;;241.90;33.67;;;4.40;99.90;;;;;;4936165;28;20459;-85
2021/12/29 07:08:21;;;;;;;244.57;35.20;;;4.40;99.90;;;;;;4960671;28;20441;-84
2021/12/29 07:10:47;;;;;;;272.48;36.67;;;4.40;99.90;;;;;;4944818;29;20042;-84
2021/12/29 07:13:12;;;;;;;220.25;34.92;;;4.40;99.90;;;;;;4943706;28;20582;-84
2021/12/29 07:15:38;;;;;;;212.52;35.28;;;4.40;99.90;;;;;;4959271;28;20027;-85
2021/12/29 07:18:04;;;;;;;164.43;32.10;;;4.40;99.90;;;;;;4946600;28;20056;-85
2021/12/29 07:20:30;;;;;;;207.45;33.92;;;4.40;99.90;;;;;;4945896;29;20399;-84
2021/12/29 07:22:56;;;;;;;208.13;33.53;;;4.40;99.90;;;;;;4961444;28;20081;-84
2021/12/29 07:25:22;;;;;;;323.95;34.83;;;4.40;99.90;;;;;;4957386;28;20062;-84
2021/12/29 07:27:48;;;;;;;271.15;34.22;;;4.40;99.90;;;;;;4942156;28;20031;-85
2021/12/29 07:30:14;;;;;;;303.30;35.03;;;4.40;99.90;;;;;;4945995;29;20118;-85
2021/12/29 07:32:40;;;;;;;197.68;31.77;;;4.40;99.90;;;;;;4941060;28;20122;-84
2021/12/29 07:35:06;;;;;;;250.27;33.10;;;4.50;99.90;;;;;;4962155;28;20058;-85
2021/12/29 07:37:32;;;;;;;164.60;30.38;;;4.40;99.90;;;;;;4943193;28;20035;-85
2021/12/29 07:39:57;;;;;;;139.43;29.15;;;4.50;99.90;;;;;;4943503;28;20482;-84
2021/12/29 07:42:23;;;;;;;151.60;31.25;;;4.50;99.90;;;;;;4947340;28;20026;-84
2021/12/29 07:44:50;;;;;;;152.52;29.27;;;4.50;99.90;;;;;;4945507;28;20035;-85
2021/12/29 07:47:16;;;;;;;150.23;29.48;;;4.50;99.90;;;;;;4945171;28;20030;-84
2021/12/29 07:49:41;;;;;;;124.30;28.05;;;4.50;99.90;;;;;;4939999;28;20020;-83
2021/12/29 07:52:07;;;;;;;180.98;30.15;;;4.50;99.90;;;;;;4943018;29;20031;-84
2021/12/29 07:54:33;;;;;;;168.32;28.08;;;4.60;99.90;;;;;;4959111;28;20101;-84
2021/12/29 07:56:58;;;;;;;139.43;27.17;;;4.50;99.90;;;;;;4957696;28;20035;-84
2021/12/29 07:59:25;;;;;;;152.32;28.58;;;4.60;99.90;;;;;;4943465;29;20506;-85
2021/12/29 08:01:50;;;;;;;121.40;26.08;;;4.60;99.90;;;;;;4945218;28;20039;-85
2021/12/29 08:04:19;;;;;;;139.95;29.13;;;4.60;99.90;;;;;;4943394;28;20027;-85
2021/12/29 08:06:46;;;;;;;137.73;29.63;;;4.60;99.90;;;;;;4946533;29;20023;-84
2021/12/29 08:09:11;;;;;;;124.78;27.77;;;4.50;99.90;;;;;;4944047;28;20110;-84
2021/12/29 08:11:38;;;;;;;201.60;30.17;;;4.50;99.90;;;;;;4963016;28;20130;-85
2021/12/29 08:14:03;;;;;;;200.50;29.95;;;4.50;99.90;;;;;;4953900;28;20114;-85
2021/12/29 08:16:29;;;;;;;167.60;28.65;;;4.40;99.90;;;;;;4947176;29;20114;-85
2021/12/29 08:18:55;;;;;;;303.58;31.05;;;4.50;99.90;;;;;;4960472;28;20118;-85
2021/12/29 08:21:20;;;;;;;146.60;26.27;;;4.40;99.90;;;;;;4943592;28;20098;-85
2021/12/29 08:23:46;;;;;;;162.38;27.05;;;4.40;99.90;;;;;;4947586;28;20430;-84
2021/12/29 08:26:11;;;;;;;159.52;26.10;;;4.40;99.90;;;;;;4945594;29;20019;-84
2021/12/29 08:28:37;;;;;;;107.20;24.85;;;4.30;99.90;;;;;;4958792;28;20042;-84
2021/12/29 08:31:04;;;;;;;285.30;30.02;;;4.30;99.90;;;;;;4960845;28;20467;-84
2021/12/29 08:33:30;;;;;;;146.00;24.75;;;4.30;99.90;;;;;;4959537;28;20042;-84
2021/12/29 08:35:55;;;;;;;90.72;23.30;;;4.20;99.90;;;;;;4945982;28;20411;-84
2021/12/29 08:38:21;;;;;;;93.30;23.58;;;4.20;99.90;;;;;;4956842;28;20031;-84
2021/12/29 08:40:47;;;;;;;156.27;26.25;;;4.20;99.90;;;;;;4944118;29;20032;-84
2021/12/29 08:43:15;;;;;;;170.48;25.75;;;4.20;99.90;;;;;;4944427;28;20028;-84
2021/12/29 08:45:43;;;;;;;82.00;21.75;;;4.20;99.90;;;;;;4954675;28;20036;-84
2021/12/29 08:48:09;;;;;;;84.80;19.98;;;4.10;99.90;;;;;;4947909;28;20037;-86
2021/12/29 08:50:35;;;;;;;82.35;19.80;;;4.10;99.90;;;;;;4962224;28;20024;-87
2021/12/29 08:53:03;;;;;;;63.35;16.92;;;4.10;99.90;;;;;;4945471;28;20574;-83
2021/12/29 08:55:30;;;;;;;76.05;18.25;;;4.10;99.90;;;;;;4946331;28;20031;-84
2021/12/29 08:57:55;;;;;;;59.50;16.88;;;4.10;99.90;;;;;;4940422;28;20040;-83
2021/12/29 09:00:22;;;;;;;54.85;15.32;;;4.10;99.90;;;;;;4944192;28;20068;-84
2021/12/29 09:02:48;;;;;;;66.78;15.57;;;4.10;99.90;;;;;;4944561;29;20661;-83
2021/12/29 09:05:16;;;;;;;48.13;15.05;;;4.10;99.90;;;;;;4945625;28;20123;-83
2021/12/29 09:07:42;;;;;;;60.67;15.13;;;4.10;99.90;;;;;;4945588;28;20071;-83
2021/12/29 09:10:10;;;;;;;90.57;15.55;;;4.00;99.90;;;;;;4942887;29;20031;-83
2021/12/29 09:12:36;;;;;;;68.07;16.13;;;4.10;99.90;;;;;;4946747;29;20027;-83
2021/12/29 09:15:04;;;;;;;68.35;16.58;;;4.10;99.90;;;;;;4946723;28;20404;-83
2021/12/29 09:17:29;;;;;;;61.05;16.13;;;4.10;99.90;;;;;;4944886;28;20027;-83
2021/12/29 09:19:55;;;;;;;88.50;17.30;;;4.10;99.90;;;;;;4951254;28;20086;-84
2021/12/29 09:22:21;;;;;;;62.92;16.05;;;4.10;99.90;;;;;;4946965;28;20039;-86
2021/12/29 09:24:46;;;;;;;93.25;16.67;;;4.10;99.90;;;;;;4946584;28;20125;-85
2021/12/29 09:27:13;;;;;;;92.78;16.55;;;4.20;99.90;;;;;;4945953;28;20198;-84
2021/12/29 09:29:38;;;;;;;75.47;16.40;;;4.20;99.90;;;;;;4945446;29;20031;-84
2021/12/29 09:32:05;;;;;;;68.40;17.00;;;4.20;99.90;;;;;;4948407;29;20121;-84
2021/12/29 09:34:32;;;;;;;65.85;15.48;;;4.20;99.90;;;;;;4942263;28;20593;-83
2021/12/29 09:36:59;;;;;;;89.18;16.30;;;4.20;99.90;;;;;;4949830;29;20122;-83
2021/12/29 09:39:24;;;;;;;65.07;16.08;;;4.20;99.90;;;;;;4946748;29;20035;-83
2021/12/29 09:41:51;;;;;;;86.28;18.50;;;4.20;99.90;;;;;;4948922;28;20030;-84
2021/12/29 09:44:17;;;;;;;76.15;16.13;;;4.20;99.90;;;;;;4947339;28;20089;-84
2021/12/29 09:46:42;;;;;;;135.80;19.25;;;4.20;99.90;;;;;;4942011;28;20034;-84
2021/12/29 09:49:09;;;;;;;85.60;17.80;;;4.20;99.90;;;;;;4959069;28;20665;-84
2021/12/29 09:51:34;;;;;;;152.23;18.65;;;4.20;99.90;;;;;;4958473;28;20042;-84
2021/12/29 09:54:00;;;;;;;139.80;18.92;;;4.20;99.90;;;;;;4960641;28;20471;-84
2021/12/29 09:56:27;;;;;;;245.10;22.08;;;4.30;99.90;;;;;;4959852;28;20042;-84
2021/12/29 09:58:52;;;;;;;169.13;19.90;;;4.30;99.90;;;;;;4942275;29;20027;-84
2021/12/29 10:01:19;;;;;;;138.93;19.35;;;4.30;99.90;;;;;;4946667;28;20026;-84
2021/12/29 10:03:45;;;;;;;106.68;16.48;;;4.30;99.90;;;;;;4943177;28;20035;-83
2021/12/29 10:06:12;;;;;;;193.77;20.92;;;4.30;99.90;;;;;;4941813;28;20057;-84
2021/12/29 10:08:48;;;;;;;130.52;18.10;;;4.30;99.90;;;;;;4947551;28;20023;-84
2021/12/29 10:11:28;;;;;;;238.23;21.05;;;4.30;99.90;;;;;;4946129;28;20368;-84
2021/12/29 10:13:54;;;;;;;142.18;18.25;;;4.30;99.90;;;;;;4956427;28;20035;-84
2021/12/29 10:16:25;;;;;;;155.43;17.42;;;4.40;99.90;;;;;;4934695;28;20036;-84
2021/12/29 10:19:00;;;;;;;;;;;4.40;99.90;;;;;;4942810;29;20054;-83
2021/12/29 10:21:28;;;;;;;156.55;17.42;;;4.30;99.90;;;;;;4945280;29;19910;-84
2021/12/29 10:23:55;;;;;;;109.10;17.13;;;4.40;99.90;;;;;;4941362;28;20023;-84
2021/12/29 10:26:23;;;;;;;186.65;19.25;;;4.40;99.90;;;;;;4944831;28;20039;-84
2021/12/29 10:29:00;;;;;;;129.20;17.75;;;4.40;99.90;;;;;;4958152;28;20371;-84
2021/12/29 10:31:48;;;;;;;117.82;16.67;;;4.40;99.90;;;;;;4945860;29;20071;-84
2021/12/29 10:34:23;;;;;;;200.27;19.17;;;4.40;99.90;;;;;;4961237;28;20046;-84
2021/12/29 10:36:52;;;;;;;134.07;16.55;;;4.50;99.90;;;;;;4963914;28;20122;-85
2021/12/29 10:39:34;;;;;;;161.75;18.75;;;4.40;99.90;;;;;;4947760;28;20393;-84
2021/12/29 10:42:09;;;;;;;285.80;22.30;;;4.50;99.90;;;;;;4946568;29;20043;-85
2021/12/29 10:44:42;;;;;;;189.88;19.55;;;4.50;99.90;;;;;;4942889;29;20023;-86
2021/12/29 10:47:36;;;;;;;215.20;19.67;;;4.50;99.90;;;;;;4947770;28;20523;-86
2021/12/29 10:50:12;;;;;;;208.02;19.33;;;4.60;99.90;;;;;;4956360;28;20040;-86
2021/12/29 10:52:49;;;;;;;149.02;18.45;;;4.50;99.90;;;;;;4950541;28;20028;-87
2021/12/29 10:55:31;;;;;;;262.60;21.77;;;4.60;99.90;;;;;;4946101;28;20557;-87
2021/12/29 10:58:10;;;;;;;207.10;19.27;;;4.60;99.90;;;;;;4946676;29;20023;-86
2021/12/29 11:00:38;;;;;;;257.38;21.77;;;4.60;99.90;;;;;;4947020;28;20086;-86
2021/12/29 11:03:09;;;;;;;154.02;18.98;;;4.60;99.90;;;;;;4946301;29;20451;-86
2021/12/29 11:05:40;;;;;;;;;;;4.60;99.90;;;;;;4960293;28;20058;-86
2021/12/29 11:08:10;;;;;;;135.52;18.10;;;4.60;99.90;;;;;;4946782;28;20506;-86
2021/12/29 11:10:37;;;;;;;118.18;17.27;;;4.70;99.90;;;;;;4960907;28;20059;-86
2021/12/29 11:13:03;;;;;;;255.20;20.27;;;4.70;99.90;;;;;;4948135;28;20097;-87
2021/12/29 11:15:41;;;;;;;214.90;19.27;;;4.80;99.90;;;;;;4945078;29;20111;-87
2021/12/29 11:18:09;;;;;;;230.27;20.23;;;4.80;99.90;;;;;;4962364;28;20054;-86
2021/12/29 11:20:35;;;;;;;204.25;19.50;;;4.80;99.90;;;;;;4959966;28;20082;-86
2021/12/29 11:23:14;;;;;;;227.45;20.10;;;4.80;99.90;;;;;;4945529;29;20047;-86
2021/12/29 11:25:42;;;;;;;199.95;19.52;;;4.90;99.90;;;;;;4944604;29;20404;-86
2021/12/29 11:28:18;;;;;;;205.07;19.67;;;4.90;99.90;;;;;;4938720;28;20279;-86
2021/12/29 11:30:44;;;;;;;143.07;18.90;;;4.90;99.90;;;;;;4957661;28;20039;-86
2021/12/29 11:33:11;;;;;;;139.63;18.90;;;4.90;99.90;;;;;;4958490;28;20035;-86
2021/12/29 11:35:43;;;;;;;71.95;16.77;;;4.90;99.90;;;;;;4944846;29;20027;-85
2021/12/29 11:38:09;;;;;;;66.90;16.40;;;5.00;99.90;;;;;;4961733;28;20217;-85
2021/12/29 11:40:40;;;;;;;182.40;18.60;;;5.00;99.90;;;;;;4944831;28;20042;-86
2021/12/29 11:43:08;;;;;;;127.28;16.70;;;5.00;99.90;;;;;;4965200;28;20046;-87
2021/12/29 11:45:37;;;;;;;90.35;15.32;;;5.00;99.90;;;;;;4942291;28;20099;-87
2021/12/29 11:48:04;;;;;;;111.38;16.20;;;4.90;99.90;;;;;;4944709;28;20282;-87
2021/12/29 11:50:33;;;;;;;65.60;14.63;;;4.90;99.90;;;;;;4959889;28;20027;-86
2021/12/29 11:53:23;;;;;;;109.97;15.43;;;5.00;99.90;;;;;;4941442;28;20039;-86
2021/12/29 11:55:53;;;;;;;67.87;14.63;;;5.00;99.90;;;;;;4943961;28;20472;-86
2021/12/29 11:58:34;;;;;;;102.60;14.38;;;5.00;99.90;;;;;;4964647;28;20035;-86
2021/12/29 12:01:04;;;;;;;137.73;14.38;;;5.00;99.90;;;;;;4966681;28;20083;-86
2021/12/29 12:03:44;;;;;;;95.28;14.30;;;5.00;99.90;;;;;;4941384;29;20031;-86
2021/12/29 12:06:25;;;;;;;91.97;14.10;;;5.00;99.90;;;;;;4944801;29;20321;-86
2021/12/29 12:09:07;;;;;;;112.32;13.95;;;4.90;99.90;;;;;;4945290;29;20039;-86
2021/12/29 12:11:35;;;;;;;94.32;14.30;;;4.90;99.90;;;;;;4946590;29;20076;-86
2021/12/29 12:14:01;;;;;;;130.30;14.65;;;5.00;99.90;;;;;;4956519;28;20130;-86
2021/12/29 12:16:27;;;;;;;132.90;14.40;;;4.90;99.90;;;;;;4947565;28;20032;-86
2021/12/29 12:18:54;;;;;;;165.63;15.32;;;5.00;99.90;;;;;;4942848;28;20031;-86
2021/12/29 12:21:30;;;;;;;170.13;15.85;;;5.00;99.90;;;;;;4946882;29;20027;-85
2021/12/29 12:24:13;;;;;;;106.28;14.23;;;5.00;99.90;;;;;;4958118;28;20062;-85
2021/12/29 12:26:48;;;;;;;136.43;14.63;;;5.00;99.90;;;;;;4940013;28;20487;-86
2021/12/29 12:29:14;;;;;;;115.95;14.02;;;5.00;99.90;;;;;;4952272;28;20184;-85
2021/12/29 12:31:40;;;;;;;150.50;15.07;;;5.00;99.90;;;;;;4944410;28;20031;-86
2021/12/29 12:34:09;;;;;;;135.23;15.15;;;5.00;99.90;;;;;;4945938;28;20513;-86
2021/12/29 12:36:35;;;;;;;116.07;15.40;;;5.00;99.90;;;;;;4962230;28;20067;-87
2021/12/29 12:39:10;;;;;;;87.25;15.23;;;5.00;99.90;;;;;;4946805;29;20024;-86